Time;durP1;ratioP1;P1;durP2;ratioP2;P2;SDS_P1;SDS_P2;PMS_P1;PMS_P2;Temp;Humidity;BMP_temperature;BMP_pressure;BME280_temperature;BME280_humidity;BME280_pressure;Samples;Min_cycle;Max_cycle;Signal;HPM_P1;HPM_P2
2021/09/18 00:01:51;;;;;;;28.38;21.12;;;;;;;15.73;89.55;99577.79;1707848;81;25841;-72
2021/09/18 00:04:18;;;;;;;27.95;21.30;;;;;;;15.71;89.57;99580.09;1697061;82;25813;-73
2021/09/18 00:06:44;;;;;;;27.07;21.25;;;;;;;15.70;89.69;99583.41;1697714;82;27904;-73
2021/09/18 00:09:11;;;;;;;29.15;22.55;;;;;;;15.69;89.75;99577.14;1706950;82;25495;-73
2021/09/18 00:11:38;;;;;;;29.50;21.85;;;;;;;15.67;89.78;99580.81;1704625;82;25718;-73
2021/09/18 00:14:05;;;;;;;28.62;22.15;;;;;;;15.65;89.76;99582.33;1695804;83;26113;-73
2021/09/18 00:16:32;;;;;;;28.20;22.27;;;;;;;15.63;89.77;99572.34;1696832;81;25894;-73
2021/09/18 00:18:58;;;;;;;29.05;22.55;;;;;;;15.60;89.83;99573.87;1711064;81;27312;-73
2021/09/18 00:21:25;;;;;;;28.55;21.70;;;;;;;15.58;89.85;99569.36;1689911;83;25808;-73
2021/09/18 00:23:54;;;;;;;28.27;21.35;;;;;;;15.57;89.89;99568.34;1649095;85;25837;-73
2021/09/18 00:26:21;;;;;;;29.67;20.80;;;;;;;15.56;89.93;99576.30;1685209;83;26197;-73
2021/09/18 00:28:48;;;;;;;26.80;21.33;;;;;;;15.57;90.11;99575.16;1699289;82;25697;-74
2021/09/18 00:31:14;;;;;;;31.50;22.50;;;;;;;15.55;90.19;99575.52;1693648;83;27431;-73
2021/09/18 00:33:41;;;;;;;28.02;21.57;;;;;;;15.54;90.24;99572.57;1697902;82;25881;-74
2021/09/18 00:36:08;;;;;;;26.73;20.50;;;;;;;15.53;90.32;99570.20;1692859;83;26162;-74
2021/09/18 00:38:34;;;;;;;30.12;21.73;;;;;;;15.54;90.30;99572.57;1694534;82;25912;-73
2021/09/18 00:41:01;;;;;;;27.58;20.77;;;;;;;15.52;90.28;99572.14;1691217;83;25800;-72
2021/09/18 00:43:27;;;;;;;27.87;21.57;;;;;;;15.52;90.42;99574.87;1690000;83;27285;-73
2021/09/18 00:45:54;;;;;;;27.90;20.57;;;;;;;15.53;90.54;99572.92;1704320;82;25911;-72
2021/09/18 00:48:21;;;;;;;30.68;22.30;;;;;;;15.52;90.52;99574.09;1707687;82;25792;-72
2021/09/18 00:50:47;;;;;;;29.65;20.90;;;;;;;15.52;90.61;99577.59;1695634;82;26539;-73
2021/09/18 00:53:14;;;;;;;29.12;21.10;;;;;;;15.52;90.63;99575.45;1663814;84;25486;-73
2021/09/18 00:55:43;;;;;;;27.27;20.12;;;;;;;15.51;90.51;99578.77;1699759;81;27371;-73
2021/09/18 00:58:09;;;;;;;29.02;20.15;;;;;;;15.51;90.53;99573.31;1710070;81;25799;-74
2021/09/18 01:00:37;;;;;;;26.48;19.92;;;;;;;15.50;90.67;99574.45;1704830;81;25764;-72
2021/09/18 01:03:04;;;;;;;29.12;19.73;;;;;;;15.52;90.72;99572.14;1700606;81;25967;-73
2021/09/18 01:05:30;;;;;;;25.48;18.98;;;;;;;15.51;90.79;99576.03;1695831;83;25847;-73
2021/09/18 01:07:58;;;;;;;27.80;20.08;;;;;;;15.48;90.74;99572.08;1706796;81;27343;-73
2021/09/18 01:10:25;;;;;;;31.80;20.57;;;;;;;15.50;90.77;99571.72;1710541;82;25750;-73
2021/09/18 01:13:18;;;;;;;27.73;19.42;;;;;;;15.49;90.83;99573.67;1706293;82;25730;-73
2021/09/18 01:15:45;;;;;;;27.15;18.62;;;;;;;15.49;90.81;99575.59;1700740;81;25823;-73
2021/09/18 01:18:12;;;;;;;27.25;20.35;;;;;;;15.48;90.91;99576.75;1696644;82;26254;-73
2021/09/18 01:20:41;;;;;;;28.35;19.92;;;;;;;15.47;90.96;99577.89;1693619;81;27309;-73
2021/09/18 01:23:10;;;;;;;24.60;19.10;;;;;;;15.46;91.00;99573.02;1698512;82;25812;-73
2021/09/18 01:25:40;;;;;;;27.42;19.35;;;;;;;15.46;91.00;99564.03;1686553;81;25957;-73
2021/09/18 01:28:07;;;;;;;27.67;18.82;;;;;;;15.46;91.06;99566.76;1650280;84;26804;-73
2021/09/18 01:30:35;;;;;;;27.80;19.07;;;;;;;15.45;91.01;99561.89;1712703;82;25806;-73
2021/09/18 01:33:05;;;;;;;27.98;19.85;;;;;;;15.45;90.98;99561.11;1694835;82;27287;-74
2021/09/18 01:35:32;;;;;;;29.10;19.55;;;;;;;15.44;91.06;99563.05;1694210;81;25794;-74
2021/09/18 01:37:59;;;;;;;28.15;19.30;;;;;;;15.43;91.12;99556.02;1699652;81;25862;-74
2021/09/18 01:40:34;;;;;;;30.23;20.32;;;;;;;15.44;91.18;99556.80;1706564;82;26528;-75
2021/09/18 01:43:01;;;;;;;31.12;20.55;;;;;;;15.43;91.17;99550.57;1700747;82;25903;-74
2021/09/18 01:45:31;;;;;;;30.30;20.62;;;;;;;15.43;91.20;99555.23;1707437;81;27282;-74
2021/09/18 01:48:01;;;;;;;30.55;20.40;;;;;;;15.41;91.15;99551.51;1696717;81;25728;-74
2021/09/18 01:50:51;;;;;;;29.42;20.17;;;;;;;15.41;91.23;99548.78;1703141;82;25852;-73
2021/09/18 01:53:19;;;;;;;30.27;20.00;;;;;;;15.41;91.21;99547.97;1701435;81;25671;-73
2021/09/18 01:55:46;;;;;;;;;;;;;;;15.39;91.31;99548.36;1701858;82;25683;-73
2021/09/18 01:58:13;;;;;;;30.62;20.10;;;;;;;15.38;91.45;99545.41;1707361;81;27304;-73
2021/09/18 02:00:44;;;;;;;29.02;20.52;;;;;;;15.38;91.47;99544.63;1697506;81;25760;-74
2021/09/18 02:03:11;;;;;;;27.48;20.08;;;;;;;15.37;91.53;99541.09;1698287;81;25745;-74
2021/09/18 02:05:38;;;;;;;27.17;19.07;;;;;;;15.37;91.53;99539.73;1697413;82;25821;-74
2021/09/18 02:08:05;;;;;;;30.05;20.70;;;;;;;15.37;91.54;99545.19;1701358;81;25830;-74
2021/09/18 02:10:32;;;;;;;30.08;19.57;;;;;;;15.40;91.54;99546.41;1705603;82;27301;-74
2021/09/18 02:13:06;;;;;;;29.25;20.17;;;;;;;15.39;91.67;99544.27;1696357;81;26389;-74
2021/09/18 02:15:33;;;;;;;28.98;18.95;;;;;;;15.39;91.64;99541.55;1697465;81;25460;-75
2021/09/18 02:17:59;;;;;;;27.75;18.92;;;;;;;15.39;91.74;99541.55;1706403;81;25831;-74
2021/09/18 02:20:29;;;;;;;28.05;19.00;;;;;;;15.40;91.75;99535.52;1693871;81;25822;-74
2021/09/18 02:22:56;;;;;;;;;;;;;;;15.39;91.72;99536.66;1671664;83;27385;-74
2021/09/18 02:25:24;;;;;;;30.02;18.55;;;;;;;15.40;91.87;99537.66;1695467;82;25777;-74
2021/09/18 02:27:51;;;;;;;29.23;17.82;;;;;;;15.39;91.84;99534.73;1703515;81;25872;-74
2021/09/18 02:30:22;;;;;;;27.73;19.02;;;;;;;15.40;91.84;99536.30;1698740;82;26283;-72
2021/09/18 02:32:49;;;;;;;25.90;19.27;;;;;;;15.40;91.85;99529.48;1695983;82;25454;-71
2021/09/18 02:35:18;;;;;;;25.77;17.62;;;;;;;15.41;91.84;99532.98;1700909;82;27324;-71
2021/09/18 02:37:46;;;;;;;;;;;;;;;15.41;91.95;99531.62;1701785;81;25751;-71
2021/09/18 02:40:16;;;;;;;22.90;17.42;;;;;;;15.42;92.03;99530.48;1703782;81;25752;-71
2021/09/18 02:42:47;;;;;;;26.70;18.75;;;;;;;15.40;92.04;99528.70;1701210;81;25836;-71
2021/09/18 02:45:16;;;;;;;28.75;19.17;;;;;;;15.40;92.10;99530.84;1696807;82;26318;-71
2021/09/18 02:47:43;;;;;;;25.12;19.05;;;;;;;15.41;92.09;99530.27;1707640;81;27988;-71
2021/09/18 02:50:12;;;;;;;31.25;19.32;;;;;;;15.42;92.04;99534.58;1700645;81;25861;-70
2021/09/18 02:52:39;;;;;;;20.45;14.13;;;;;;;15.42;91.91;99538.66;1696406;81;25750;-70
2021/09/18 02:55:08;;;;;;;15.38;12.15;;;;;;;15.41;91.72;99531.62;1701588;83;26580;-70
2021/09/18 02:57:35;;;;;;;15.53;10.28;;;;;;;15.36;91.46;99535.45;1686305;81;26414;-70
2021/09/18 03:00:04;;;;;;;13.00;10.03;;;;;;;15.28;90.75;99533.14;1695577;83;27365;-70
2021/09/18 03:02:30;;;;;;;14.47;9.87;;;;;;;15.18;90.23;99535.08;1693075;83;26516;-70
2021/09/18 03:04:57;;;;;;;11.30;9.05;;;;;;;15.09;90.14;99534.52;1639105;86;25896;-70
2021/09/18 03:07:23;;;;;;;13.60;9.05;;;;;;;15.00;89.81;99536.64;1700689;82;25785;-70
2021/09/18 03:09:50;;;;;;;15.50;9.65;;;;;;;14.90;89.77;99531.98;1710669;82;25923;-70
2021/09/18 03:12:17;;;;;;;12.53;9.13;;;;;;;14.86;89.92;99531.11;1662799;84;27398;-70
2021/09/18 03:14:43;;;;;;;11.60;8.83;;;;;;;14.82;90.03;99536.28;1709826;82;26450;-71
2021/09/18 03:17:10;;;;;;;18.00;9.80;;;;;;;14.77;90.09;99532.47;1691695;81;26436;-71
2021/09/18 03:19:37;;;;;;;15.15;9.60;;;;;;;14.72;90.21;99535.67;1666918;83;25885;-71
2021/09/18 03:22:04;;;;;;;15.13;9.33;;;;;;;14.68;90.19;99540.26;1675810;84;25891;-71
2021/09/18 03:24:30;;;;;;;11.40;9.38;;;;;;;14.64;90.24;99539.40;1686923;84;26982;-70
2021/09/18 03:26:57;;;;;;;13.65;9.73;;;;;;;14.60;90.32;99535.79;1683738;84;25868;-70
2021/09/18 03:29:24;;;;;;;14.80;9.88;;;;;;;14.56;90.33;99537.63;1669113;84;25510;-70
2021/09/18 03:31:51;;;;;;;12.00;9.60;;;;;;;14.53;90.41;99532.88;1673994;84;26182;-70
2021/09/18 03:34:17;;;;;;;18.50;10.65;;;;;;;14.51;90.47;99533.23;1637326;85;25882;-70
2021/09/18 03:36:44;;;;;;;15.32;10.50;;;;;;;14.48;90.63;99524.41;1653074;85;27400;-71
2021/09/18 03:39:11;;;;;;;14.43;9.90;;;;;;;14.47;90.65;99537.81;1654955;85;25727;-71
2021/09/18 03:41:38;;;;;;;15.10;10.72;;;;;;;14.44;90.67;99531.72;1657992;84;26495;-70
2021/09/18 03:44:04;;;;;;;13.43;9.95;;;;;;;14.42;90.75;99531.28;1645936;85;26430;-71
2021/09/18 03:46:31;;;;;;;13.38;9.63;;;;;;;14.41;90.79;99543.30;1659452;85;25828;-70
2021/09/18 03:48:58;;;;;;;12.95;9.48;;;;;;;14.40;90.82;99538.98;1650521;85;27038;-72
2021/09/18 03:51:26;;;;;;;12.43;9.53;;;;;;;14.37;90.84;99535.05;1650109;85;25903;-71
2021/09/18 03:53:52;;;;;;;14.47;9.05;;;;;;;14.36;90.78;99540.84;1656758;85;25781;-71
2021/09/18 03:56:19;;;;;;;13.62;9.38;;;;;;;14.34;90.87;99535.76;1652850;85;26866;-71
2021/09/18 03:58:45;;;;;;;13.48;9.58;;;;;;;14.33;90.90;99532.80;1665698;85;25928;-71
2021/09/18 04:01:12;;;;;;;13.88;9.85;;;;;;;14.32;91.02;99542.13;1653801;84;27893;-71
2021/09/18 04:03:39;;;;;;;12.13;8.93;;;;;;;14.33;91.11;99540.19;1647034;85;25907;-72
2021/09/18 04:06:05;;;;;;;14.15;9.10;;;;;;;14.32;91.12;99538.05;1655598;85;25797;-72
2021/09/18 04:08:32;;;;;;;12.25;9.30;;;;;;;14.32;91.00;99542.67;1657292;85;25871;-71
2021/09/18 04:10:59;;;;;;;13.90;9.58;;;;;;;14.29;91.00;99537.96;1705659;82;25784;-72
2021/09/18 04:13:25;;;;;;;15.60;9.38;;;;;;;14.28;90.98;99541.81;1694467;83;27276;-72
2021/09/18 04:15:52;;;;;;;16.62;11.57;;;;;;;14.26;91.12;99542.73;1678594;83;25812;-72
2021/09/18 04:18:18;;;;;;;23.05;13.28;;;;;;;14.22;90.96;99548.09;1650907;84;25886;-72
2021/09/18 04:20:45;;;;;;;19.48;12.85;;;;;;;14.19;90.92;99547.44;1662105;84;25791;-72
2021/09/18 04:23:13;;;;;;;20.15;11.60;;;;;;;14.13;90.70;99548.83;1652367;85;25823;-72
2021/09/18 04:25:39;;;;;;;15.32;11.97;;;;;;;14.06;90.63;99552.16;1650231;83;27309;-71
2021/09/18 04:28:06;;;;;;;16.32;10.98;;;;;;;14.03;90.57;99550.71;1701760;82;25759;-71
2021/09/18 04:30:32;;;;;;;14.68;10.88;;;;;;;13.95;90.45;99555.97;1707814;82;25773;-71
2021/09/18 04:32:59;;;;;;;18.65;10.90;;;;;;;13.92;90.65;99555.88;1704807;81;26328;-71
2021/09/18 04:35:25;;;;;;;14.63;10.30;;;;;;;13.89;90.52;99557.36;1713807;81;25888;-70
2021/09/18 04:37:52;;;;;;;12.07;10.23;;;;;;;13.83;90.52;99565.56;1702013;83;27382;-71
2021/09/18 04:40:19;;;;;;;13.35;10.65;;;;;;;13.80;90.65;99571.11;1694960;83;25505;-71
2021/09/18 04:42:46;;;;;;;13.55;10.05;;;;;;;13.77;90.64;99560.96;1667441;84;26226;-71
2021/09/18 04:45:13;;;;;;;14.55;9.80;;;;;;;13.76;90.82;99565.39;1621406;85;26460;-72
2021/09/18 04:47:39;;;;;;;13.60;9.18;;;;;;;13.72;90.64;99572.06;1624442;86;25717;-72
2021/09/18 04:50:08;;;;;;;13.60;7.90;;;;;;;13.68;90.51;99561.67;1708495;82;27285;-71
2021/09/18 04:52:34;;;;;;;9.85;7.72;;;;;;;13.63;90.29;99569.50;1720524;81;25797;-71
2021/09/18 04:55:01;;;;;;;11.00;8.08;;;;;;;13.61;90.38;99574.50;1723593;82;25686;-71
2021/09/18 04:57:27;;;;;;;9.40;7.65;;;;;;;13.58;90.28;99576.54;1706994;82;25901;-72
2021/09/18 04:59:54;;;;;;;14.87;7.92;;;;;;;13.55;90.20;99575.09;1715560;81;26336;-71
2021/09/18 05:02:21;;;;;;;11.28;8.00;;;;;;;13.52;90.26;99579.85;1718763;82;27317;-71
2021/09/18 05:04:47;;;;;;;11.57;7.87;;;;;;;13.49;90.38;99584.06;1721274;81;25980;-72
2021/09/18 05:07:14;;;;;;;9.80;7.87;;;;;;;13.48;90.36;99584.41;1718862;82;25952;-72
2021/09/18 05:09:40;;;;;;;11.48;8.23;;;;;;;13.44;90.31;99581.02;1714006;81;25703;-72
2021/09/18 05:12:07;;;;;;;12.98;8.35;;;;;;;13.43;90.41;99585.43;1724034;82;26038;-70
2021/09/18 05:14:34;;;;;;;13.20;8.50;;;;;;;13.42;90.53;99583.88;1689280;82;27313;-72
2021/09/18 05:17:01;;;;;;;11.20;8.10;;;;;;;13.41;90.69;99584.99;1678290;83;25908;-71
2021/09/18 05:19:27;;;;;;;9.00;7.53;;;;;;;13.40;90.59;99592.36;1677765;83;25642;-72
2021/09/18 05:21:54;;;;;;;13.40;8.35;;;;;;;13.38;90.50;99590.56;1719341;81;25904;-72
2021/09/18 05:24:20;;;;;;;10.53;7.72;;;;;;;13.37;90.43;99597.70;1716265;81;25841;-71
2021/09/18 05:26:47;;;;;;;10.48;7.00;;;;;;;13.33;90.39;99589.45;1715978;81;27297;-72
2021/09/18 05:29:14;;;;;;;9.00;7.33;;;;;;;13.30;90.39;99590.09;1719845;81;25799;-71
2021/09/18 05:31:40;;;;;;;10.08;7.45;;;;;;;13.31;90.61;99590.88;1714504;82;25818;-72
2021/09/18 05:34:07;;;;;;;10.45;6.97;;;;;;;13.30;90.55;99594.72;1725855;82;26132;-72
2021/09/18 05:36:34;;;;;;;10.00;7.65;;;;;;;13.27;90.42;99595.64;1696466;82;25524;-72
2021/09/18 05:39:00;;;;;;;12.23;7.62;;;;;;;13.26;90.31;99598.70;1708439;81;27312;-71
2021/09/18 05:41:27;;;;;;;9.63;7.12;;;;;;;13.23;90.29;99597.47;1704670;82;25774;-71
2021/09/18 05:43:53;;;;;;;11.30;7.90;;;;;;;13.21;90.24;99603.81;1684008;84;25789;-71
2021/09/18 05:46:20;;;;;;;8.78;7.25;;;;;;;13.17;90.09;99598.05;1710238;83;26104;-71
2021/09/18 05:48:47;;;;;;;9.48;7.12;;;;;;;13.15;90.36;99603.04;1717913;82;25851;-71
2021/09/18 05:51:13;;;;;;;10.03;7.25;;;;;;;13.13;90.32;99603.38;1714653;82;27353;-71
2021/09/18 05:53:40;;;;;;;13.13;7.87;;;;;;;13.10;90.35;99605.99;1687090;82;25862;-71
2021/09/18 05:56:06;;;;;;;9.95;7.28;;;;;;;13.08;90.21;99611.77;1652087;84;25910;-71
2021/09/18 05:58:33;;;;;;;11.20;7.08;;;;;;;13.01;89.83;99610.98;1657331;85;26192;-71
2021/09/18 06:01:00;;;;;;;9.85;6.97;;;;;;;12.97;89.72;99608.70;1654276;85;25824;-71
2021/09/18 06:03:26;;;;;;;9.30;6.55;;;;;;;12.92;89.47;99618.44;1657565;85;27286;-71
2021/09/18 06:05:53;;;;;;;8.00;6.47;;;;;;;12.83;89.12;99614.48;1689600;82;26025;-71
2021/09/18 06:08:19;;;;;;;10.72;7.17;;;;;;;12.78;89.40;99615.30;1687309;83;25833;-71
2021/09/18 06:10:46;;;;;;;9.58;7.28;;;;;;;12.75;89.49;99625.47;1685730;83;25829;-71
2021/09/18 06:13:13;;;;;;;10.10;7.25;;;;;;;12.71;89.60;99618.00;1683939;83;25414;-71
2021/09/18 06:15:39;;;;;;;10.30;7.10;;;;;;;12.70;89.74;99629.19;1673835;83;27845;-71
2021/09/18 06:18:06;;;;;;;10.10;7.53;;;;;;;12.67;89.89;99632.60;1687602;82;25723;-71
2021/09/18 06:20:33;;;;;;;10.40;8.30;;;;;;;12.67;89.76;99627.95;1682835;83;25843;-71
2021/09/18 06:22:59;;;;;;;10.32;7.95;;;;;;;12.62;89.76;99633.61;1672264;83;25623;-71
2021/09/18 06:25:26;;;;;;;13.90;8.18;;;;;;;12.64;89.97;99636.77;1654673;84;25935;-71
2021/09/18 06:27:53;;;;;;;13.40;9.65;;;;;;;12.64;90.10;99638.13;1654761;85;27869;-71
2021/09/18 06:30:19;;;;;;;16.52;11.08;;;;;;;12.64;90.18;99634.05;1719332;81;25725;-71
2021/09/18 06:32:46;;;;;;;13.62;8.85;;;;;;;12.65;90.11;99642.98;1704670;82;25864;-70
2021/09/18 06:35:13;;;;;;;11.10;8.68;;;;;;;12.64;89.96;99635.98;1723242;81;25859;-70
2021/09/18 06:37:43;;;;;;;9.98;8.50;;;;;;;12.64;90.15;99635.98;1729738;80;25826;-70
2021/09/18 06:40:11;;;;;;;;;;;;;;;12.66;90.31;99639.14;1738343;80;27518;-70
2021/09/18 06:42:38;;;;;;;19.92;14.20;;;;;;;12.66;90.28;99637.79;1709891;81;26396;-70
2021/09/18 06:45:07;;;;;;;12.68;8.38;;;;;;;12.66;90.44;99639.14;1734182;80;25843;-70
2021/09/18 06:47:34;;;;;;;13.08;8.28;;;;;;;12.67;90.15;99638.03;1727879;80;25841;-70
2021/09/18 06:50:01;;;;;;;9.53;6.17;;;;;;;12.65;90.20;99635.66;1731814;80;25857;-70
2021/09/18 06:52:27;;;;;;;8.60;6.00;;;;;;;12.68;90.05;99634.17;1735096;81;27316;-71
2021/09/18 06:54:54;;;;;;;6.85;5.92;;;;;;;12.66;89.86;99641.28;1738146;81;25845;-71
2021/09/18 06:57:21;;;;;;;7.35;6.08;;;;;;;12.66;90.10;99637.22;1659329;83;25850;-71
2021/09/18 06:59:48;;;;;;;10.90;6.60;;;;;;;12.69;90.37;99638.47;1669696;82;25636;-71
2021/09/18 07:02:15;;;;;;;7.83;6.17;;;;;;;12.73;90.47;99646.73;1659291;84;25850;-69
2021/09/18 07:04:41;;;;;;;7.80;5.92;;;;;;;12.74;90.20;99642.32;1674951;83;27341;-72
2021/09/18 07:07:08;;;;;;;9.13;6.28;;;;;;;12.73;89.98;99644.80;1734538;81;26440;-70
2021/09/18 07:09:35;;;;;;;8.20;6.20;;;;;;;12.76;90.13;99648.77;1738184;81;25644;-70
2021/09/18 07:12:01;;;;;;;7.72;5.83;;;;;;;12.78;90.26;99650.00;1724939;81;25831;-70
2021/09/18 07:14:28;;;;;;;7.20;5.90;;;;;;;12.81;90.33;99652.03;1742694;81;25922;-70
2021/09/18 07:16:54;;;;;;;7.10;5.85;;;;;;;12.83;90.11;99650.34;1742444;81;27846;-69
2021/09/18 07:19:21;;;;;;;10.32;6.22;;;;;;;12.84;90.14;99656.80;1743398;81;25835;-70
2021/09/18 07:21:48;;;;;;;9.90;5.62;;;;;;;12.86;89.85;99653.17;1731057;81;25451;-70
2021/09/18 07:24:14;;;;;;;7.92;5.92;;;;;;;12.85;89.74;99659.72;1738408;81;26302;-69
2021/09/18 07:26:41;;;;;;;7.00;5.70;;;;;;;12.91;90.44;99659.52;1726153;81;25622;-69
2021/09/18 07:29:07;;;;;;;8.35;5.58;;;;;;;12.96;90.35;99662.00;1727617;81;27295;-69
2021/09/18 07:31:36;;;;;;;6.33;5.72;;;;;;;12.98;90.01;99657.80;1714560;81;27178;-69
2021/09/18 07:34:03;;;;;;;12.10;5.85;;;;;;;12.98;89.76;99658.37;1716175;81;25926;-69
2021/09/18 07:36:32;;;;;;;9.18;5.85;;;;;;;13.00;89.72;99659.60;1722884;81;26002;-69
2021/09/18 07:38:58;;;;;;;12.95;6.35;;;;;;;13.01;89.66;99660.42;1718331;81;26016;-67
2021/09/18 07:41:25;;;;;;;7.53;5.87;;;;;;;12.99;89.45;99660.75;1717621;81;27306;-69
2021/09/18 07:43:52;;;;;;;10.08;6.97;;;;;;;13.01;89.51;99656.34;1723423;81;25789;-70
2021/09/18 07:46:18;;;;;;;10.15;7.03;;;;;;;13.02;89.57;99653.27;1721987;80;25849;-69
2021/09/18 07:48:45;;;;;;;13.15;8.90;;;;;;;13.02;89.40;99656.55;1716837;81;25748;-69
2021/09/18 07:51:12;;;;;;;9.20;8.30;;;;;;;13.03;89.66;99654.86;1718285;80;25843;-69
2021/09/18 07:53:39;;;;;;;12.47;9.85;;;;;;;13.10;89.84;99660.30;1704641;82;27944;-69
2021/09/18 07:56:06;;;;;;;13.75;9.35;;;;;;;13.15;89.77;99663.56;1676197;83;25690;-69
2021/09/18 07:58:32;;;;;;;10.88;8.78;;;;;;;13.23;90.24;99664.00;1686411;82;25869;-69
2021/09/18 08:00:59;;;;;;;9.23;8.23;;;;;;;13.36;90.37;99674.30;1709446;83;25808;-69
2021/09/18 08:03:28;;;;;;;10.10;6.75;;;;;;;13.50;90.57;99664.44;1711939;82;25823;-70
2021/09/18 08:05:55;;;;;;;;;;;;;;;13.57;89.94;99664.64;1695646;81;27385;-72
2021/09/18 08:08:22;;;;;;;9.50;6.55;;;;;;;13.66;89.87;99663.14;1712954;81;26592;-71
2021/09/18 08:10:48;;;;;;;7.60;6.17;;;;;;;13.71;89.19;99663.47;1721454;81;25849;-70
2021/09/18 08:13:15;;;;;;;8.63;6.87;;;;;;;13.74;88.94;99666.28;1724869;81;25620;-70
2021/09/18 08:15:42;;;;;;;8.83;7.35;;;;;;;13.75;88.38;99665.13;1737463;79;25818;-70
2021/09/18 08:18:08;;;;;;;9.40;6.92;;;;;;;13.77;88.23;99668.32;1723079;80;27282;-72
2021/09/18 08:20:36;;;;;;;9.80;7.33;;;;;;;13.78;88.06;99675.32;1728695;80;25758;-71
2021/09/18 08:23:03;;;;;;;9.70;7.62;;;;;;;13.77;87.20;99683.27;1732186;80;25638;-71
2021/09/18 08:25:30;;;;;;;9.65;7.47;;;;;;;13.71;86.66;99681.14;1740084;80;25751;-71
2021/09/18 08:27:58;;;;;;;9.38;7.95;;;;;;;13.69;86.53;99684.20;1650948;84;25585;-72
2021/09/18 08:30:26;;;;;;;10.25;7.22;;;;;;;13.68;86.57;99688.04;1677165;82;28429;-71
2021/09/18 08:32:52;;;;;;;9.30;7.67;;;;;;;13.65;86.35;99683.28;1700253;82;25464;-71
2021/09/18 08:35:19;;;;;;;7.50;6.72;;;;;;;13.63;86.32;99688.28;1680844;83;25874;-73
2021/09/18 08:37:46;;;;;;;8.83;6.00;;;;;;;13.62;86.00;99692.12;1704386;83;25876;-71
2021/09/18 08:40:13;;;;;;;9.45;6.47;;;;;;;13.56;85.79;99684.00;1707326;82;25931;-72
2021/09/18 08:42:41;;;;;;;7.17;5.95;;;;;;;13.52;85.49;99687.98;1710061;81;28045;-72
2021/09/18 08:45:13;;;;;;;9.35;6.00;;;;;;;13.47;85.12;99692.29;1712201;81;25995;-72
2021/09/18 08:47:42;;;;;;;7.28;5.37;;;;;;;13.43;85.28;99700.34;1681482;83;25933;-72
2021/09/18 08:50:14;;;;;;;;;;;;;;;13.39;85.07;99689.13;1683648;83;26190;-71
2021/09/18 08:52:42;;;;;;;5.70;4.35;;;;;;;13.34;84.82;99694.22;1705399;82;25660;-72
2021/09/18 08:55:11;;;;;;;7.33;4.75;;;;;;;13.27;84.72;99694.77;1724697;80;27881;-71
2021/09/18 08:57:42;;;;;;;6.40;4.70;;;;;;;13.25;84.80;99699.75;1722382;80;27228;-69
2021/09/18 09:00:33;;;;;;;6.85;4.55;;;;;;;13.22;84.57;99712.65;1729276;79;25771;-72
2021/09/18 09:03:10;;;;;;;5.78;3.90;;;;;;;13.15;84.50;99711.08;1730142;80;26290;-71
2021/09/18 09:05:42;;;;;;;6.25;3.50;;;;;;;13.13;84.31;99709.27;1698591;82;25790;-70
2021/09/18 09:08:21;;;;;;;4.83;3.85;;;;;;;13.07;84.05;99709.27;1739573;80;27328;-72
2021/09/18 09:10:50;;;;;;;;;;;;;;;13.02;83.98;99716.27;1736555;80;25888;-72
2021/09/18 09:13:23;;;;;;;6.20;3.60;;;;;;;13.00;84.04;99715.25;1694575;81;25829;-71
2021/09/18 09:16:09;;;;;;;4.75;3.62;;;;;;;12.99;84.25;99721.83;1672956;84;25884;-71
2021/09/18 09:18:40;;;;;;;6.40;3.67;;;;;;;12.97;84.34;99721.93;1671306;83;25900;-71
2021/09/18 09:21:20;;;;;;;3.75;3.37;;;;;;;12.99;84.41;99722.38;1675759;83;27389;-71
2021/09/18 09:24:12;;;;;;;6.53;5.03;;;;;;;12.99;84.28;99723.19;1695944;82;25575;-73
2021/09/18 09:26:49;;;;;;;9.58;6.80;;;;;;;13.00;84.26;99717.97;1678114;83;25735;-73
2021/09/18 09:29:16;;;;;;;4.83;4.05;;;;;;;12.96;83.85;99713.00;1679253;84;25750;-72
2021/09/18 09:31:43;;;;;;;5.42;3.90;;;;;;;12.93;83.60;99722.39;1685631;84;25468;-73
2021/09/18 09:34:18;;;;;;;6.40;4.20;;;;;;;12.86;83.50;99722.95;1681826;83;28041;-71
2021/09/18 09:36:49;;;;;;;4.30;3.90;;;;;;;12.78;83.27;99732.77;1720098;80;25843;-73
2021/09/18 09:39:27;;;;;;;8.38;3.55;;;;;;;12.73;83.37;99733.56;1721816;80;25587;-73
2021/09/18 09:41:55;;;;;;;6.47;4.58;;;;;;;12.72;83.78;99725.99;1718536;80;26263;-72
2021/09/18 09:44:27;;;;;;;6.05;4.37;;;;;;;12.78;84.44;99731.41;1728727;80;25885;-70
2021/09/18 09:47:12;;;;;;;4.53;3.65;;;;;;;12.92;85.26;99729.72;1719512;80;28023;-72
2021/09/18 09:49:54;;;;;;;4.47;3.60;;;;;;;13.02;84.87;99724.42;1722211;80;25875;-76
2021/09/18 09:52:31;;;;;;;4.75;3.65;;;;;;;13.08;84.05;99726.58;1724546;80;25884;-72
2021/09/18 09:55:13;;;;;;;5.62;5.05;;;;;;;13.06;83.71;99720.70;1722677;81;26220;-72
2021/09/18 09:57:44;;;;;;;6.50;5.42;;;;;;;13.08;83.51;99727.93;1729930;80;25804;-73
2021/09/18 10:00:15;;;;;;;7.22;5.87;;;;;;;13.06;83.26;99728.84;1721887;80;27312;-73
2021/09/18 10:02:43;;;;;;;8.28;6.10;;;;;;;13.06;83.19;99726.70;1730189;81;26937;-73
2021/09/18 10:05:14;;;;;;;10.60;7.53;;;;;;;13.02;82.96;99727.92;1723366;81;25892;-72
2021/09/18 10:07:43;;;;;;;7.87;6.72;;;;;;;13.01;82.88;99732.36;1726635;80;26294;-73
2021/09/18 10:10:12;;;;;;;8.00;7.10;;;;;;;12.99;82.54;99730.52;1722543;81;26417;-73
2021/09/18 10:12:39;;;;;;;;;;;;;;;12.97;82.46;99733.57;1718442;80;27270;-72
2021/09/18 10:15:09;;;;;;;8.15;6.78;;;;;;;12.95;82.45;99737.77;1706918;81;26374;-72
2021/09/18 10:17:44;;;;;;;7.53;6.65;;;;;;;12.93;82.37;99741.39;1719993;81;25856;-71
2021/09/18 10:25:37;;;;;;;6.83;4.90;;;;;;;12.96;82.47;99738.01;1728718;81;27293;-71
2021/09/18 10:28:23;;;;;;;8.68;5.95;;;;;;;13.02;82.38;99744.20;1726891;81;25436;-71
2021/09/18 10:31:00;;;;;;;5.37;4.30;;;;;;;13.04;82.11;99736.54;1719532;80;25827;-71
2021/09/18 10:33:40;;;;;;;5.05;4.22;;;;;;;13.07;81.88;99748.05;1715803;80;25614;-68
2021/09/18 10:36:14;;;;;;;7.20;4.58;;;;;;;13.06;81.79;99739.70;1725030;80;25898;-68
2021/09/18 10:39:11;;;;;;;6.47;4.37;;;;;;;13.08;81.77;99737.44;1713274;80;27338;-66
2021/09/18 10:41:49;;;;;;;3.80;3.40;;;;;;;13.13;82.27;99737.78;1722061;81;25829;-70
2021/09/18 10:44:22;;;;;;;3.37;3.00;;;;;;;13.23;82.12;99745.48;1716800;82;25486;-71
2021/09/18 10:46:58;;;;;;;3.35;2.85;;;;;;;13.24;81.32;99749.76;1732525;81;25635;-70
2021/09/18 10:49:36;;;;;;;3.60;2.10;;;;;;;13.23;81.04;99754.20;1716666;80;25822;-70
2021/09/18 10:52:31;;;;;;;2.45;2.00;;;;;;;13.17;80.44;99756.33;1726766;81;27304;-70
2021/09/18 10:55:08;;;;;;;2.50;2.30;;;;;;;13.12;80.44;99751.70;1718754;81;25509;-69
2021/09/18 10:57:48;;;;;;;2.27;1.85;;;;;;;13.07;80.48;99752.13;1726227;80;26414;-71
2021/09/18 11:00:26;;;;;;;;;;;;;;;13.05;80.22;99766.61;1729586;80;25873;-74
2021/09/18 11:03:00;;;;;;;2.47;1.62;;;;;;;13.01;80.08;99758.93;1730458;81;25679;-71
2021/09/18 11:05:38;;;;;;;2.70;1.85;;;;;;;12.97;79.88;99763.43;1737638;80;27297;-72
2021/09/18 11:08:19;;;;;;;1.98;1.72;;;;;;;12.97;80.26;99763.43;1744701;80;25834;-71
2021/09/18 11:10:53;;;;;;;1.67;1.45;;;;;;;13.02;80.49;99763.78;1729744;80;25821;-72
2021/09/18 11:13:23;;;;;;;1.80;1.37;;;;;;;13.06;80.20;99769.56;1730242;80;25819;-72
2021/09/18 11:15:52;;;;;;;;;;;;;;;13.08;80.14;99770.59;1729166;80;26561;-72
2021/09/18 11:18:33;;;;;;;1.92;1.82;;;;;;;13.11;79.63;99765.84;1697724;81;27376;-71
2021/09/18 11:21:11;;;;;;;2.30;1.55;;;;;;;13.07;79.37;99768.99;1738339;80;25848;-70
2021/09/18 11:23:54;;;;;;;1.07;1.07;;;;;;;13.03;78.94;99762.66;1729599;80;25690;-68
2021/09/18 11:26:38;;;;;;;1.98;1.35;;;;;;;13.02;79.04;99763.21;1731406;80;25671;-66
2021/09/18 11:29:13;;;;;;;2.05;1.85;;;;;;;13.02;79.15;99763.78;1726570;80;25685;-67
2021/09/18 11:31:52;;;;;;;2.12;2.02;;;;;;;13.05;79.18;99773.97;1734229;80;27367;-69
2021/09/18 11:34:32;;;;;;;3.77;2.40;;;;;;;13.08;79.31;99765.94;1726855;81;25486;-68
2021/09/18 11:37:02;;;;;;;3.80;3.50;;;;;;;13.08;79.24;99761.87;1734535;80;29835;-69
2021/09/18 11:39:51;;;;;;;3.15;2.62;;;;;;;13.11;78.90;99766.39;1731462;80;25769;-70
2021/09/18 11:42:31;;;;;;;3.12;2.87;;;;;;;13.07;78.46;99776.56;1733323;81;25425;-71
2021/09/18 11:45:15;;;;;;;4.80;4.37;;;;;;;13.03;78.65;99768.09;1724245;81;27306;-71